• Join FlightAware (Why Join?)
  • Login
  • US Flag 
12:09PM EST


 

Airport Tracker/Info


-or-


 

Live Flight TrackerFlight Track Log ✈ FIN666 ✈ 15-Dec-2013 ✈ EKCH / CPH - EFHK / HEL

Flight Track Log - Related Links

Times and Time Zones

All times are in EST time to prevent confusion due to time zone crossing. See the FIN666 flight status page for this flight to view local times or setup timezone preferences in your user account.

Time Position Orientation Groundspeed Altitude Reporting Facility
EST Latitude Longitude Course Direction KTS MPH feet Rate Location/Type
07:23AM 55.9081 13.2574 49° Northeast  Level Estimated
07:24AM 55.9802 13.4092 50° Northeast  Level Estimated
07:25AM 56.0521 13.5615 50° Northeast  Level Estimated
07:26AM 56.1238 13.7144 50° Northeast  Level Estimated
07:27AM 56.1953 13.8679 50° Northeast  Level Estimated
07:28AM 56.2667 14.0219 50° Northeast  Level Estimated
07:29AM 56.3378 14.1766 50° Northeast  Level Estimated
07:30AM 56.4087 14.3318 50° Northeast  Level Estimated
07:31AM 56.4795 14.4875 51° Northeast  Level Estimated
07:32AM 56.5501 14.6439 51° Northeast  Level Estimated
07:33AM 56.6204 14.8008 51° Northeast  Level Estimated
07:34AM 56.6906 14.9584 51° Northeast  Level Estimated
07:35AM 56.7605 15.1165 51° Northeast  Level Estimated
07:36AM 56.8303 15.2752 51° Northeast  Level Estimated
07:37AM 56.8999 15.4345 51° Northeast  Level Estimated
07:38AM 56.9692 15.5944 51° Northeast  Level Estimated
07:39AM 57.0384 15.7549 52° Northeast  Level Estimated
07:40AM 57.1073 15.9159 52° Northeast  Level Estimated
07:41AM 57.1760 16.0776 52° Northeast  Level Estimated
07:42AM 57.2446 16.2399 52° Northeast  Level Estimated
07:43AM 57.3129 16.4028 52° Northeast  Level Estimated
07:44AM 57.3820 16.5686 52° Northeast  Level Estimated
07:45AM 57.4508 16.7350 52° Northeast  Level Estimated
07:46AM 57.5195 16.9020 53° Northeast  Level Estimated
07:47AM 57.5879 17.0697 53° Northeast  Level Estimated
07:48AM 57.6560 17.2380 53° Northeast  Level Estimated
07:49AM 57.7240 17.4070 53° Northeast  Level Estimated
07:50AM 57.7917 17.5765 53° Northeast  Level Estimated
07:51AM 57.8592 17.7468 53° Northeast  Level Estimated
07:52AM 57.9265 17.9176 53° Northeast  Level Estimated
07:53AM 57.9936 18.0891 54° Northeast  Level Estimated
07:54AM 58.0604 18.2612 54° Northeast  Level Estimated
07:55AM 58.1269 18.4340 54° Northeast  Level Estimated
07:56AM 58.1933 18.6074 54° Northeast  Level Estimated
07:57AM 58.2594 18.7815 54° Northeast  Level Estimated
07:58AM 58.3253 18.9562 54° Northeast  Level Estimated
07:59AM 58.3909 19.1316 54° Northeast  Level Estimated
08:00AM 58.4563 19.3076 55° Northeast  Level Estimated
08:01AM 58.5215 19.4843 55° Northeast  Level Estimated
08:02AM 58.5864 19.6616 55° Northeast  Level Estimated
08:03AM 58.6510 19.8396 55° Northeast  Level Estimated
08:04AM 58.7154 20.0183 55° Northeast  Level Estimated
08:05AM 58.7796 20.1976 55° Northeast  Level Estimated
08:06AM 58.8435 20.3776 55° Northeast  Level Estimated
08:07AM 58.9072 20.5582 56° Northeast  Level Estimated
08:08AM 58.9706 20.7395 56° Northeast  Level Estimated
08:09AM 59.0338 20.9215 56° Northeast  Level Estimated
08:10AM 59.0967 21.1041 56° Northeast  Level Estimated
08:11AM 59.1593 21.2874 56° Northeast  Level Estimated
08:12AM 59.2209 21.4688 56° Northeast  Level Estimated
08:13AM 59.2821 21.6509 57° Northeast  Level Estimated
08:14AM 59.3431 21.8337 57° Northeast  Level Estimated
08:15AM 59.4039 22.0170 57° Northeast  Level Estimated
08:16AM 59.4644 22.2011 57° Northeast  Level Estimated
08:17AM 59.5246 22.3858 57° Northeast  Level Estimated
08:18AM 59.5846 22.5712 57° Northeast  Level Estimated
08:19AM 59.6443 22.7572 58° Northeast  Level Estimated
08:20AM 59.7038 22.9439 58° Northeast  Level Estimated
08:21AM 59.7630 23.1312 58° Northeast  Level Estimated
08:22AM 59.8219 23.3193 58° Northeast  Level Estimated
08:23AM 59.8806 23.5079 58° Northeast  Level Estimated
08:24AM 59.9389 23.6973 58° Northeast  Level Estimated
08:25AM 59.9970 23.8873 58° Northeast  Level Estimated
08:26AM 60.0549 24.0780 59° Northeast  Level Estimated
08:27AM 60.1124 24.2693 59° Northeast  Level Estimated
08:28AM 60.1697 24.4613 59° Northeast  Level Estimated
08:29AM 60.2267 24.6540 59° Northeast  Level Estimated
08:30AM 60.2834 24.8474 59° Northeast  Level Estimated
08:31AM 60.3172 24.9633 59° Northeast  Level Estimated
08:32AM 60.3172 24.9633 37° Northeast  Level Estimated
08:33AM 60.3172 24.9633 37° Northeast  Level Estimated
08:34AM 60.3172 24.9633 37° Northeast  Level Estimated
08:35AM 60.3172 24.9633 37° Northeast  Level Estimated
08:36AM 60.3172 24.9633 37° Northeast  Level Estimated
08:37AM 60.3172 24.9633 37° Northeast  Level Estimated
08:38AM 60.3172 24.9633 37° Northeast  Level Estimated
08:39AM 60.3172 24.9633 37° Northeast  Level Estimated
08:40AM 60.3172 24.9633 37° Northeast  Level Estimated
08:41AM 60.3172 24.9633 37° Northeast  Level Estimated
08:42AM 60.3172 24.9633 37° Northeast  Level Estimated